Terminal Aerodrome Forecast
Issued by NWS

Home | Current Version | Previous Version | Text Only | Print | Product List | Glossary On
Versions: 1 2 3 4 5 6 7 8 9 10 11 12 13 14 15 16 17 18
000
FTUS45 KLKN 281205 AAA
TAFEKO
TAF AMD
KEKO 281205Z 2812/2912 29010KT P6SM VCSH BKN060
      TEMPO 2812/2816 -SHSN BKN035
     FM281600 30015G25KT P6SM VCSH FEW035 BKN060
     FM290100 VRB06KT P6SM SCT100=

USA.gov is the U.S. government's official web portal to all federal, state and local government web resources and services.